Richmond, Texas
Current Conditions -  °F | °C
As of 2:07 AM on Friday 19 Dec 2014 (Local Time) from KSGR Reporting Station
Thunderstorm Thunderstorm  
Wind Chill: 60°   Ceiling: 2600
Heat Index: 60°   Visibility: 8mi
Dew Point: 57°   Wind: 12mph
Humidity: 90%   Direction: 80°E
Pressure: 30.01"   Gusts: NA
Location:  29.58°N, 95.76°W
Report Text: KSGR 190807Z AUTO 08010KT 8SM VCTS -RA OVC026 16/14 A3001 RMK AO2 LTG DSNT N AND NE P0001 T01560139
Loading
Personal Weather Stations






























Interactive Weather Map New forecast layout! Learn more

10-Day Weather Forecast

Advertisements
Track Severe Weather on mobile